Time;durP1;ratioP1;P1;durP2;ratioP2;P2;SDS_P1;SDS_P2;PMS_P1;PMS_P2;Temp;Humidity;BMP_temperature;BMP_pressure;BME280_temperature;BME280_humidity;BME280_pressure;Samples;Min_cycle;Max_cycle;Signal;HPM_P1;HPM_P2
2023/12/13 00:01:57;;;;;;;146.30;80.93;;;;;;;;;;4407746;32;317666;-80
2023/12/13 00:04:24;;;;;;;139.57;77.77;;;;;;;;;;4418197;32;319414;-80
2023/12/13 00:06:50;;;;;;;133.40;74.10;;;;;;;;;;4408060;32;318180;-80
2023/12/13 00:09:17;;;;;;;129.10;70.47;;;;;;;;;;4415468;32;317901;-80
2023/12/13 00:11:44;;;;;;;125.03;68.17;;;;;;;;;;4393731;32;319382;-81
2023/12/13 00:14:11;;;;;;;142.87;70.83;;;;;;;;;;4402440;32;319167;-81
2023/12/13 00:16:38;;;;;;;129.63;72.13;;;;;;;;;;4398960;32;318571;-80
2023/12/13 00:19:07;;;;;;;130.10;73.00;;;;;;;;;;4378424;32;319320;-80
2023/12/13 00:21:35;;;;;;;165.47;86.83;;;;;;;;;;4387739;32;320597;-80
2023/12/13 00:24:02;;;;;;;163.50;87.47;;;;;;;;;;4377706;32;319338;-80
2023/12/13 00:26:29;;;;;;;143.57;81.77;;;;;;;;;;4388121;32;319374;-80
2023/12/13 00:28:56;;;;;;;135.13;77.37;;;;;;;;;;4384362;32;319657;-80
2023/12/13 00:31:23;;;;;;;133.60;76.60;;;;;;;;;;4393580;32;319618;-80
2023/12/13 00:33:50;;;;;;;134.90;76.10;;;;;;;;;;4377704;32;319363;-80
2023/12/13 00:36:19;;;;;;;128.93;74.43;;;;;;;;;;4388238;32;319306;-80
2023/12/13 00:38:46;;;;;;;122.43;70.03;;;;;;;;;;4377837;32;319446;-80
2023/12/13 00:41:13;;;;;;;115.47;61.83;;;;;;;;;;4387912;32;318514;-81
2023/12/13 00:43:40;;;;;;;86.30;50.97;;;;;;;;;;4387956;32;319475;-82
2023/12/13 00:46:14;;;;;;;97.23;54.07;;;;;;;;;;4377253;32;318247;-81
2023/12/13 00:48:41;;;;;;;87.47;49.93;;;;;;;;;;4400477;32;318377;-82
2023/12/13 00:51:16;;;;;;;94.00;49.60;;;;;;;;;;4389786;32;419125;-81
2023/12/13 00:53:44;;;;;;;104.83;55.07;;;;;;;;;;4362455;32;318389;-81
2023/12/13 00:56:11;;;;;;;122.30;58.83;;;;;;;;;;4371409;32;354062;-82
2023/12/13 00:58:38;;;;;;;126.93;58.33;;;;;;;;;;4376132;32;318620;-81
2023/12/13 01:01:05;;;;;;;144.83;69.07;;;;;;;;;;4376217;32;319244;-80
2023/12/13 01:03:32;;;;;;;129.10;65.37;;;;;;;;;;4387234;32;319301;-80
2023/12/13 01:05:59;;;;;;;106.13;57.90;;;;;;;;;;4376990;32;318721;-81
2023/12/13 01:08:26;;;;;;;111.07;58.43;;;;;;;;;;4387158;32;318753;-81
2023/12/13 01:10:55;;;;;;;118.80;62.97;;;;;;;;;;4377503;32;319438;-81
2023/12/13 01:13:22;;;;;;;120.47;65.70;;;;;;;;;;4387188;32;319183;-81
2023/12/13 01:15:49;;;;;;;103.97;60.90;;;;;;;;;;4377229;32;319115;-81
2023/12/13 01:18:16;;;;;;;116.47;63.43;;;;;;;;;;4387211;32;319480;-81
2023/12/13 01:20:42;;;;;;;126.27;63.17;;;;;;;;;;4377317;32;318645;-81
2023/12/13 01:23:09;;;;;;;131.17;67.53;;;;;;;;;;4387178;32;319440;-80
2023/12/13 01:25:36;;;;;;;118.27;64.27;;;;;;;;;;4387397;32;319576;-81
2023/12/13 01:28:05;;;;;;;142.23;74.03;;;;;;;;;;4375593;32;319234;-80
2023/12/13 01:30:32;;;;;;;133.90;74.57;;;;;;;;;;4387411;32;319430;-80
2023/12/13 01:32:58;;;;;;;139.17;76.80;;;;;;;;;;4376292;32;319445;-80
2023/12/13 01:35:25;;;;;;;167.07;87.93;;;;;;;;;;4387227;32;319417;-80
2023/12/13 01:37:52;;;;;;;167.67;92.40;;;;;;;;;;4376852;32;319389;-80
2023/12/13 01:40:19;;;;;;;173.50;93.20;;;;;;;;;;4386001;32;319011;-81
2023/12/13 01:42:46;;;;;;;225.53;123.97;;;;;;;;;;4376173;32;319544;-81
2023/12/13 01:45:15;;;;;;;245.83;133.20;;;;;;;;;;4385641;32;319625;-81
2023/12/13 01:47:42;;;;;;;262.47;143.17;;;;;;;;;;4376504;32;319688;-80
2023/12/13 01:50:10;;;;;;;257.63;132.63;;;;;;;;;;4385948;32;337270;-81
2023/12/13 01:52:37;;;;;;;193.83;107.33;;;;;;;;;;4386534;32;320335;-81
2023/12/13 01:55:06;;;;;;;184.43;99.10;;;;;;;;;;4376664;32;320210;-80
2023/12/13 01:57:33;;;;;;;151.90;90.27;;;;;;;;;;4386983;32;318700;-80
2023/12/13 02:00:00;;;;;;;149.97;84.87;;;;;;;;;;4376857;32;319298;-81
2023/12/13 02:02:29;;;;;;;162.13;87.23;;;;;;;;;;4386163;32;319300;-81
2023/12/13 02:04:56;;;;;;;162.33;87.03;;;;;;;;;;4377501;32;319046;-80
2023/12/13 02:07:23;;;;;;;157.60;85.73;;;;;;;;;;4386686;32;318567;-81
2023/12/13 02:09:50;;;;;;;168.17;91.87;;;;;;;;;;4376298;32;319565;-82
2023/12/13 02:12:17;;;;;;;166.17;87.40;;;;;;;;;;4387441;32;324718;-82
2023/12/13 02:14:44;;;;;;;142.53;86.47;;;;;;;;;;4378189;32;319312;-80
2023/12/13 02:17:13;;;;;;;151.70;85.37;;;;;;;;;;4387342;32;319406;-81
2023/12/13 02:19:41;;;;;;;161.47;83.90;;;;;;;;;;4387808;32;319380;-81
2023/12/13 02:22:09;;;;;;;154.83;87.43;;;;;;;;;;4374298;32;419026;-81
2023/12/13 02:24:38;;;;;;;156.90;85.83;;;;;;;;;;4387081;32;318453;-81
2023/12/13 02:27:06;;;;;;;159.00;90.40;;;;;;;;;;4377524;32;331913;-81
2023/12/13 02:29:33;;;;;;;160.93;86.53;;;;;;;;;;4387556;32;319703;-81
2023/12/13 02:32:00;;;;;;;160.27;87.33;;;;;;;;;;4375073;32;319227;-80
2023/12/13 02:34:27;;;;;;;157.37;85.50;;;;;;;;;;4385625;32;319097;-80
2023/12/13 02:36:54;;;;;;;151.73;84.43;;;;;;;;;;4376230;32;319286;-80
2023/12/13 02:39:22;;;;;;;148.60;85.10;;;;;;;;;;4386461;32;319410;-82
2023/12/13 02:41:49;;;;;;;137.60;76.47;;;;;;;;;;4374964;32;318449;-81
2023/12/13 02:44:16;;;;;;;106.47;60.37;;;;;;;;;;4385345;32;319109;-79
2023/12/13 02:46:43;;;;;;;96.47;56.33;;;;;;;;;;4375631;32;350298;-79
2023/12/13 02:49:10;;;;;;;90.20;49.70;;;;;;;;;;4389574;32;318107;-81
2023/12/13 02:51:37;;;;;;;94.27;50.37;;;;;;;;;;4394701;32;317441;-82
2023/12/13 02:54:04;;;;;;;100.37;56.23;;;;;;;;;;4394682;32;318553;-81
2023/12/13 02:56:32;;;;;;;98.97;54.67;;;;;;;;;;4404136;32;319593;-81
2023/12/13 02:58:59;;;;;;;87.83;51.40;;;;;;;;;;4378300;32;318166;-81
2023/12/13 03:01:27;;;;;;;124.33;67.67;;;;;;;;;;4388101;32;317647;-81
2023/12/13 03:03:54;;;;;;;115.03;64.40;;;;;;;;;;4379156;32;319128;-80
2023/12/13 03:06:21;;;;;;;132.00;70.47;;;;;;;;;;4389953;32;319339;-80
2023/12/13 03:08:48;;;;;;;113.30;64.67;;;;;;;;;;4364857;32;320169;-80
2023/12/13 03:11:15;;;;;;;104.23;58.30;;;;;;;;;;4374012;32;319083;-80
2023/12/13 03:13:43;;;;;;;111.83;59.10;;;;;;;;;;4363010;32;319065;-80
2023/12/13 03:16:10;;;;;;;111.53;62.17;;;;;;;;;;4373163;32;319369;-80
2023/12/13 03:18:37;;;;;;;96.60;55.93;;;;;;;;;;4373359;32;319290;-80
2023/12/13 03:21:04;;;;;;;97.63;56.17;;;;;;;;;;4363482;32;317846;-80
2023/12/13 03:23:31;;;;;;;106.70;58.37;;;;;;;;;;4373438;32;318137;-80
2023/12/13 03:25:58;;;;;;;85.53;50.13;;;;;;;;;;4363434;32;319492;-80
2023/12/13 03:28:25;;;;;;;80.27;46.00;;;;;;;;;;4376776;32;317542;-80
2023/12/13 03:30:53;;;;;;;81.43;43.63;;;;;;;;;;4378652;32;319011;-80
2023/12/13 03:33:20;;;;;;;64.10;38.37;;;;;;;;;;4388129;32;318235;-80
2023/12/13 03:35:47;;;;;;;64.77;38.03;;;;;;;;;;4377628;32;318414;-80
2023/12/13 03:38:14;;;;;;;65.67;40.33;;;;;;;;;;4388500;32;344912;-80
2023/12/13 03:40:41;;;;;;;63.50;37.50;;;;;;;;;;4389142;32;318350;-80
2023/12/13 03:43:08;;;;;;;66.33;37.93;;;;;;;;;;4376713;32;418006;-80
2023/12/13 03:45:35;;;;;;;62.97;36.37;;;;;;;;;;4388873;32;317469;-80
2023/12/13 03:48:03;;;;;;;56.07;34.70;;;;;;;;;;4379229;32;318318;-81
2023/12/13 03:50:30;;;;;;;63.60;36.83;;;;;;;;;;4388698;32;317544;-81
2023/12/13 03:52:57;;;;;;;53.13;33.40;;;;;;;;;;4378847;32;318572;-81
2023/12/13 03:55:23;;;;;;;60.87;35.50;;;;;;;;;;4389365;32;318290;-81
2023/12/13 03:57:50;;;;;;;57.30;34.50;;;;;;;;;;4377532;32;318308;-80
2023/12/13 04:00:18;;;;;;;52.00;33.03;;;;;;;;;;4387707;32;318351;-80
2023/12/13 04:02:45;;;;;;;58.33;33.57;;;;;;;;;;4379399;32;317882;-81
2023/12/13 04:05:13;;;;;;;60.37;36.07;;;;;;;;;;4389262;32;318318;-80
2023/12/13 04:07:40;;;;;;;70.30;39.30;;;;;;;;;;4388885;32;318678;-80
2023/12/13 04:10:09;;;;;;;72.67;39.67;;;;;;;;;;4379207;32;318359;-80
2023/12/13 04:12:36;;;;;;;82.40;41.17;;;;;;;;;;4388661;32;318661;-81
2023/12/13 04:15:03;;;;;;;77.33;47.50;;;;;;;;;;4378535;32;318259;-82
2023/12/13 04:17:30;;;;;;;73.23;44.70;;;;;;;;;;4389436;32;318323;-81
2023/12/13 04:19:58;;;;;;;82.67;46.63;;;;;;;;;;4377718;32;317991;-82
2023/12/13 04:22:26;;;;;;;85.57;49.60;;;;;;;;;;4388426;32;318061;-81
2023/12/13 04:24:53;;;;;;;101.53;53.90;;;;;;;;;;4378924;32;318134;-81
2023/12/13 04:27:20;;;;;;;96.20;58.00;;;;;;;;;;4387932;32;318464;-80
2023/12/13 04:29:47;;;;;;;100.87;58.93;;;;;;;;;;4389908;32;318068;-81
2023/12/13 04:32:14;;;;;;;105.17;60.97;;;;;;;;;;4388508;32;320454;-82
2023/12/13 04:34:41;;;;;;;107.43;63.77;;;;;;;;;;4389176;32;318500;-82
2023/12/13 04:37:08;;;;;;;120.53;68.80;;;;;;;;;;4376011;32;420162;-81
2023/12/13 04:39:36;;;;;;;135.33;73.30;;;;;;;;;;4389047;32;318614;-81
2023/12/13 04:42:03;;;;;;;116.00;71.33;;;;;;;;;;4376875;32;352843;-80
2023/12/13 04:44:30;;;;;;;143.43;74.53;;;;;;;;;;4388005;32;319079;-80
2023/12/13 04:46:57;;;;;;;175.23;97.73;;;;;;;;;;4377683;32;319474;-81
2023/12/13 04:49:24;;;;;;;157.07;86.57;;;;;;;;;;4392690;32;319464;-81
2023/12/13 04:51:51;;;;;;;153.87;83.93;;;;;;;;;;4381757;32;319301;-80
2023/12/13 04:54:19;;;;;;;115.67;67.33;;;;;;;;;;4387928;32;318615;-81
2023/12/13 04:56:47;;;;;;;98.40;60.47;;;;;;;;;;4379222;32;319123;-80
2023/12/13 04:59:14;;;;;;;90.53;58.77;;;;;;;;;;4403808;32;317961;-80
2023/12/13 05:01:41;;;;;;;137.83;78.07;;;;;;;;;;4391382;32;318430;-80
2023/12/13 05:04:08;;;;;;;140.33;80.23;;;;;;;;;;4376312;32;419965;-81
2023/12/13 05:06:34;;;;;;;118.57;70.67;;;;;;;;;;4388894;32;319211;-81
2023/12/13 05:09:01;;;;;;;136.03;70.00;;;;;;;;;;4374423;32;319647;-81
2023/12/13 05:11:28;;;;;;;109.60;60.80;;;;;;;;;;4398825;32;319642;-81
2023/12/13 05:13:57;;;;;;;95.40;49.10;;;;;;;;;;4383223;32;319518;-81
2023/12/13 05:16:23;;;;;;;77.13;40.20;;;;;;;;;;4388006;32;317805;-80
2023/12/13 05:18:50;;;;;;;71.93;38.07;;;;;;;;;;4389502;32;318418;-82
2023/12/13 05:21:17;;;;;;;58.60;33.80;;;;;;;;;;4377684;32;318972;-81
2023/12/13 05:23:45;;;;;;;63.80;36.17;;;;;;;;;;4388177;32;317741;-82
2023/12/13 05:26:12;;;;;;;57.23;32.80;;;;;;;;;;4377284;32;322993;-81
2023/12/13 05:28:39;;;;;;;62.13;33.87;;;;;;;;;;4387389;32;345522;-82
2023/12/13 05:31:07;;;;;;;58.63;34.37;;;;;;;;;;4377775;32;318824;-82
2023/12/13 05:33:34;;;;;;;65.93;35.97;;;;;;;;;;4389121;32;318575;-81
2023/12/13 05:36:01;;;;;;;69.10;38.73;;;;;;;;;;4377046;32;318454;-81
2023/12/13 05:38:28;;;;;;;71.70;37.63;;;;;;;;;;4387857;32;318576;-82
2023/12/13 05:40:56;;;;;;;62.67;36.50;;;;;;;;;;4377408;32;318556;-82
2023/12/13 05:43:23;;;;;;;88.63;45.33;;;;;;;;;;4384945;32;318446;-82
2023/12/13 05:45:50;;;;;;;93.27;48.63;;;;;;;;;;4376951;32;318623;-81
2023/12/13 05:48:18;;;;;;;91.27;55.20;;;;;;;;;;4377342;32;318242;-81
2023/12/13 05:50:45;;;;;;;100.87;59.20;;;;;;;;;;4387968;32;318407;-81
2023/12/13 05:53:12;;;;;;;112.83;63.47;;;;;;;;;;4389745;32;319441;-82
2023/12/13 05:55:40;;;;;;;127.20;69.17;;;;;;;;;;4403927;32;319502;-81
2023/12/13 05:58:09;;;;;;;128.93;71.03;;;;;;;;;;4392253;32;319377;-81
2023/12/13 06:00:36;;;;;;;118.73;67.83;;;;;;;;;;4401501;32;319421;-81
2023/12/13 06:03:03;;;;;;;117.87;68.00;;;;;;;;;;4376892;32;319735;-82
2023/12/13 06:05:31;;;;;;;118.23;67.17;;;;;;;;;;4387593;32;319122;-82
2023/12/13 06:07:58;;;;;;;104.47;64.63;;;;;;;;;;4377820;32;318948;-82
2023/12/13 06:10:25;;;;;;;112.53;66.80;;;;;;;;;;4388626;32;319360;-81
2023/12/13 06:12:52;;;;;;;119.13;65.43;;;;;;;;;;4388413;32;319372;-82
2023/12/13 06:15:19;;;;;;;118.70;69.63;;;;;;;;;;4375322;32;418625;-82
2023/12/13 06:17:48;;;;;;;129.67;78.03;;;;;;;;;;4398941;32;319202;-83
2023/12/13 06:20:15;;;;;;;133.73;73.63;;;;;;;;;;4395127;32;319734;-83
2023/12/13 06:22:44;;;;;;;126.90;73.10;;;;;;;;;;4404093;32;319487;-82
2023/12/13 06:25:10;;;;;;;118.73;63.47;;;;;;;;;;4393558;32;319330;-81
2023/12/13 06:27:37;;;;;;;108.00;65.87;;;;;;;;;;4402573;32;319202;-81
2023/12/13 06:30:10;;;;;;;109.37;61.00;;;;;;;;;;4389824;32;319704;-81
2023/12/13 06:32:37;;;;;;;105.77;62.07;;;;;;;;;;4385364;32;319298;-82
2023/12/13 06:35:04;;;;;;;128.03;67.73;;;;;;;;;;4374574;32;319512;-80
2023/12/13 06:37:31;;;;;;;126.80;75.90;;;;;;;;;;4385494;32;319549;-81
2023/12/13 06:40:00;;;;;;;120.93;71.30;;;;;;;;;;4375110;32;318731;-81
2023/12/13 06:42:28;;;;;;;138.23;76.10;;;;;;;;;;4385410;32;319074;-81
2023/12/13 06:44:55;;;;;;;144.50;84.37;;;;;;;;;;4375523;32;319504;-80
2023/12/13 06:47:22;;;;;;;124.57;74.30;;;;;;;;;;4385543;32;319002;-82
2023/12/13 06:49:49;;;;;;;148.70;83.33;;;;;;;;;;4384151;32;319137;-80
2023/12/13 06:52:16;;;;;;;140.60;79.77;;;;;;;;;;4374047;32;318523;-80
2023/12/13 06:54:43;;;;;;;130.47;77.80;;;;;;;;;;4384712;32;318543;-81
2023/12/13 06:57:12;;;;;;;137.90;78.57;;;;;;;;;;4373872;32;323410;-82
2023/12/13 06:59:39;;;;;;;144.73;83.10;;;;;;;;;;4384445;32;348368;-81
2023/12/13 07:02:06;;;;;;;145.97;82.50;;;;;;;;;;4375455;32;319185;-81
2023/12/13 07:04:35;;;;;;;146.07;86.17;;;;;;;;;;4386464;32;318707;-81
2023/12/13 07:07:02;;;;;;;148.13;87.40;;;;;;;;;;4376854;32;319243;-80
2023/12/13 07:09:30;;;;;;;161.93;92.40;;;;;;;;;;4388999;32;319711;-81
2023/12/13 07:12:00;;;;;;;145.27;87.97;;;;;;;;;;4385883;32;318416;-81
2023/12/13 07:14:28;;;;;;;150.90;86.67;;;;;;;;;;4395839;32;318525;-79
2023/12/13 07:16:55;;;;;;;148.60;88.00;;;;;;;;;;4381162;32;319427;-79
2023/12/13 07:19:22;;;;;;;173.87;101.00;;;;;;;;;;4398241;32;318862;-80
2023/12/13 07:21:49;;;;;;;167.40;97.87;;;;;;;;;;4388793;32;320471;-82
2023/12/13 07:24:16;;;;;;;155.93;95.47;;;;;;;;;;4377736;32;319262;-81
2023/12/13 07:26:43;;;;;;;152.50;92.13;;;;;;;;;;4387460;32;318505;-81
2023/12/13 07:29:10;;;;;;;168.80;95.70;;;;;;;;;;4376201;32;318517;-81
2023/12/13 07:31:40;;;;;;;160.17;93.50;;;;;;;;;;4387086;32;331288;-83
2023/12/13 07:34:09;;;;;;;169.00;96.10;;;;;;;;;;4380264;32;318669;-82
2023/12/13 07:36:37;;;;;;;156.43;98.37;;;;;;;;;;4390394;32;319560;-82
2023/12/13 07:39:04;;;;;;;174.93;102.57;;;;;;;;;;4379911;32;318893;-82
2023/12/13 07:41:31;;;;;;;188.20;107.50;;;;;;;;;;4388577;32;320314;-84
2023/12/13 07:43:58;;;;;;;172.77;101.03;;;;;;;;;;4379763;32;344941;-83
2023/12/13 07:46:25;;;;;;;182.27;103.70;;;;;;;;;;4389604;32;320257;-83
2023/12/13 07:48:56;;;;;;;188.07;110.43;;;;;;;;;;4389442;32;320732;-83
2023/12/13 07:51:23;;;;;;;194.63;114.23;;;;;;;;;;4376379;32;419303;-84
2023/12/13 07:53:50;;;;;;;197.87;119.57;;;;;;;;;;4384796;32;320349;-84
2023/12/13 07:56:17;;;;;;;194.37;115.53;;;;;;;;;;4379493;32;319662;-83
2023/12/13 07:58:44;;;;;;;182.90;110.70;;;;;;;;;;4388906;32;320696;-83
2023/12/13 08:01:12;;;;;;;185.80;112.90;;;;;;;;;;4379384;32;320190;-82
2023/12/13 08:03:41;;;;;;;181.00;114.27;;;;;;;;;;4373818;32;319710;-83
2023/12/13 08:06:13;;;;;;;179.53;110.37;;;;;;;;;;4386485;32;319855;-83
2023/12/13 08:08:41;;;;;;;200.90;111.43;;;;;;;;;;4371967;32;320623;-81
2023/12/13 08:11:08;;;;;;;184.00;108.73;;;;;;;;;;4359525;32;319373;-81
2023/12/13 08:13:35;;;;;;;177.97;106.10;;;;;;;;;;4367224;32;320912;-82
2023/12/13 08:16:02;;;;;;;176.97;103.87;;;;;;;;;;4354303;32;419772;-81
2023/12/13 08:18:29;;;;;;;164.67;102.87;;;;;;;;;;4364942;32;319794;-83
2023/12/13 08:20:56;;;;;;;161.07;95.70;;;;;;;;;;4356074;32;319695;-81
2023/12/13 08:23:24;;;;;;;149.77;95.57;;;;;;;;;;4361307;32;319412;-82
2023/12/13 08:25:51;;;;;;;155.63;100.63;;;;;;;;;;4356822;32;319217;-83
2023/12/13 08:28:18;;;;;;;160.40;100.37;;;;;;;;;;4366413;32;319143;-82
2023/12/13 08:30:44;;;;;;;165.83;102.17;;;;;;;;;;4353844;32;350543;-82
2023/12/13 08:33:11;;;;;;;169.20;100.87;;;;;;;;;;4359710;32;319955;-82
2023/12/13 08:35:38;;;;;;;177.00;105.70;;;;;;;;;;4356192;32;320272;-82
2023/12/13 08:38:05;;;;;;;175.13;104.00;;;;;;;;;;4366130;32;319871;-84
2023/12/13 08:40:33;;;;;;;166.57;93.60;;;;;;;;;;4366188;32;320289;-82
2023/12/13 08:43:01;;;;;;;175.23;99.87;;;;;;;;;;4354027;32;319283;-81
2023/12/13 08:45:27;;;;;;;152.60;96.57;;;;;;;;;;4366324;32;318410;-83
2023/12/13 08:47:54;;;;;;;151.53;94.57;;;;;;;;;;4356939;32;319563;-82
2023/12/13 08:50:21;;;;;;;151.33;91.10;;;;;;;;;;4366698;32;319662;-82
2023/12/13 08:52:48;;;;;;;130.20;78.03;;;;;;;;;;4355445;32;319013;-82
2023/12/13 08:55:15;;;;;;;133.00;82.60;;;;;;;;;;4360335;32;319137;-80
2023/12/13 08:57:43;;;;;;;116.57;68.67;;;;;;;;;;4361068;32;319077;-81
2023/12/13 09:00:11;;;;;;;108.30;67.03;;;;;;;;;;4381541;32;319834;-80
2023/12/13 09:02:38;;;;;;;107.23;67.23;;;;;;;;;;4372554;32;317974;-80
2023/12/13 09:05:06;;;;;;;115.43;65.57;;;;;;;;;;4376017;32;317541;-82
2023/12/13 09:07:33;;;;;;;127.07;75.93;;;;;;;;;;4381487;32;319127;-79
2023/12/13 09:10:00;;;;;;;111.67;69.33;;;;;;;;;;4368205;32;318191;-81
2023/12/13 09:12:27;;;;;;;105.47;65.63;;;;;;;;;;4367989;32;319200;-80
2023/12/13 09:14:55;;;;;;;103.27;63.93;;;;;;;;;;4352316;32;318976;-83
2023/12/13 09:17:23;;;;;;;107.63;65.00;;;;;;;;;;4355806;32;319652;-81
2023/12/13 09:19:50;;;;;;;94.23;60.63;;;;;;;;;;4352726;32;319316;-81
2023/12/13 09:22:17;;;;;;;94.03;60.77;;;;;;;;;;4363553;32;318711;-82
2023/12/13 09:24:44;;;;;;;92.60;59.40;;;;;;;;;;4353418;32;318268;-82
2023/12/13 09:27:11;;;;;;;98.20;54.60;;;;;;;;;;4357066;32;318224;-82
2023/12/13 09:29:38;;;;;;;78.33;47.40;;;;;;;;;;4353655;32;318106;-82
2023/12/13 09:32:07;;;;;;;77.30;49.40;;;;;;;;;;4361812;32;317683;-82
2023/12/13 09:34:33;;;;;;;59.70;37.57;;;;;;;;;;4362372;32;319202;-82
2023/12/13 09:37:00;;;;;;;49.10;31.27;;;;;;;;;;4350220;32;318696;-80
2023/12/13 09:39:27;;;;;;;48.90;30.90;;;;;;;;;;4362610;32;318516;-81
2023/12/13 09:42:00;;;;;;;35.80;22.87;;;;;;;;;;4353020;32;317694;-82
2023/12/13 09:44:27;;;;;;;36.27;20.83;;;;;;;;;;4368689;32;318484;-82
2023/12/13 09:46:59;;;;;;;30.90;19.20;;;;;;;;;;4368441;32;318348;-81
2023/12/13 09:49:29;;;;;;;29.63;18.93;;;;;;;;;;4377027;32;317404;-81
2023/12/13 09:51:59;;;;;;;29.00;18.93;;;;;;;;;;4359461;32;318090;-83
2023/12/13 09:54:26;;;;;;;21.67;15.60;;;;;;;;;;4364338;32;317876;-83
2023/12/13 09:56:53;;;;;;;29.07;18.03;;;;;;;;;;4354570;32;318257;-83
2023/12/13 09:59:21;;;;;;;23.00;16.07;;;;;;;;;;4358427;32;318041;-82
2023/12/13 10:01:48;;;;;;;25.43;16.83;;;;;;;;;;4356888;32;317727;-82
2023/12/13 10:04:16;;;;;;;27.43;16.60;;;;;;;;;;4365608;32;318264;-82
2023/12/13 10:06:45;;;;;;;22.50;13.70;;;;;;;;;;4352357;32;318686;-83
2023/12/13 10:09:15;;;;;;;24.57;14.63;;;;;;;;;;4356995;32;319154;-81
2023/12/13 10:11:42;;;;;;;26.80;16.33;;;;;;;;;;4354559;32;319517;-82
2023/12/13 10:14:09;;;;;;;31.97;22.53;;;;;;;;;;4374220;32;318936;-83
2023/12/13 10:16:39;;;;;;;40.60;24.70;;;;;;;;;;4378436;32;318760;-83
2023/12/13 10:19:06;;;;;;;61.83;29.47;;;;;;;;;;4359735;32;418642;-83
2023/12/13 10:21:34;;;;;;;44.97;29.23;;;;;;;;;;4378183;32;318419;-84
2023/12/13 10:24:06;;;;;;;45.53;26.37;;;;;;;;;;4369939;32;319249;-83
2023/12/13 10:26:35;;;;;;;60.20;30.87;;;;;;;;;;4377704;32;319035;-79
2023/12/13 10:29:03;;;;;;;60.27;34.87;;;;;;;;;;4357802;32;418765;-78
2023/12/13 10:31:31;;;;;;;63.20;37.17;;;;;;;;;;4367957;32;319269;-80
2023/12/13 10:33:58;;;;;;;62.23;36.90;;;;;;;;;;4351773;32;319650;-79
2023/12/13 10:36:26;;;;;;;79.67;42.83;;;;;;;;;;4362336;32;319308;-80
2023/12/13 10:38:54;;;;;;;75.50;44.40;;;;;;;;;;4353561;32;319436;-79
2023/12/13 10:41:26;;;;;;;100.17;47.37;;;;;;;;;;4355833;32;319465;-78
2023/12/13 10:43:58;;;;;;;82.73;49.87;;;;;;;;;;4356615;32;324575;-80
2023/12/13 10:46:28;;;;;;;77.70;48.90;;;;;;;;;;4368234;32;318634;-78
2023/12/13 10:48:55;;;;;;;58.40;35.57;;;;;;;;;;4351135;32;341239;-79
2023/12/13 10:51:23;;;;;;;57.77;34.00;;;;;;;;;;4354683;32;318621;-81
2023/12/13 10:53:52;;;;;;;54.23;32.60;;;;;;;;;;4351035;32;318633;-80
2023/12/13 10:56:20;;;;;;;57.27;36.77;;;;;;;;;;4358891;32;318606;-81
2023/12/13 10:58:48;;;;;;;62.97;39.20;;;;;;;;;;4353681;32;319135;-82
2023/12/13 11:01:17;;;;;;;61.53;38.60;;;;;;;;;;4359420;32;318506;-80
2023/12/13 11:03:49;;;;;;;61.63;40.63;;;;;;;;;;4351985;32;319491;-80
2023/12/13 11:06:17;;;;;;;38.27;24.80;;;;;;;;;;4370803;32;335695;-80
2023/12/13 11:08:45;;;;;;;40.03;23.53;;;;;;;;;;4371143;32;318564;-81
2023/12/13 11:11:13;;;;;;;35.60;23.43;;;;;;;;;;4374496;32;318679;-80
2023/12/13 11:13:48;;;;;;;41.07;22.77;;;;;;;;;;4356150;32;319241;-80
2023/12/13 11:16:20;;;;;;;41.00;22.20;;;;;;;;;;4364316;32;319260;-80
2023/12/13 11:18:50;;;;;;;38.37;22.00;;;;;;;;;;4355559;32;318809;-79
2023/12/13 11:21:27;;;;;;;31.83;21.03;;;;;;;;;;4354934;32;318580;-79
2023/12/13 11:23:56;;;;;;;40.00;22.57;;;;;;;;;;4360865;32;318633;-79
2023/12/13 11:26:23;;;;;;;39.23;23.17;;;;;;;;;;4365910;32;318782;-79
2023/12/13 11:28:54;;;;;;;30.10;19.37;;;;;;;;;;4355232;32;319230;-80
2023/12/13 11:31:22;;;;;;;32.30;20.63;;;;;;;;;;4356839;32;318682;-79
2023/12/13 11:33:50;;;;;;;33.43;19.87;;;;;;;;;;4355721;32;318461;-80
2023/12/13 11:36:24;;;;;;;28.60;16.93;;;;;;;;;;4355035;32;319204;-80
2023/12/13 11:38:52;;;;;;;36.20;17.37;;;;;;;;;;4353900;32;319465;-79
2023/12/13 11:41:19;;;;;;;41.20;18.70;;;;;;;;;;4358203;32;319289;-79
2023/12/13 11:43:47;;;;;;;25.97;17.47;;;;;;;;;;4354117;32;318818;-80
2023/12/13 11:46:16;;;;;;;29.40;17.73;;;;;;;;;;4365242;32;319494;-79
2023/12/13 11:48:45;;;;;;;29.87;17.40;;;;;;;;;;4356412;32;349892;-82
2023/12/13 11:51:12;;;;;;;31.00;18.13;;;;;;;;;;4359155;32;319051;-86
2023/12/13 11:53:39;;;;;;;32.17;18.87;;;;;;;;;;4355029;32;319271;-82
2023/12/13 11:56:10;;;;;;;40.97;19.73;;;;;;;;;;4365692;32;319126;-83
2023/12/13 11:58:37;;;;;;;31.57;18.33;;;;;;;;;;4365236;32;319299;-84
2023/12/13 12:01:05;;;;;;;28.50;16.37;;;;;;;;;;4365929;32;318473;-81
2023/12/13 12:03:34;;;;;;;34.10;20.17;;;;;;;;;;4369619;32;319748;-83
2023/12/13 12:06:01;;;;;;;34.97;19.00;;;;;;;;;;4354898;32;359874;-83
2023/12/13 12:08:28;;;;;;;33.40;20.23;;;;;;;;;;4365944;32;318407;-83
2023/12/13 12:10:56;;;;;;;35.43;20.33;;;;;;;;;;4354490;32;318555;-81
2023/12/13 12:13:23;;;;;;;32.77;19.43;;;;;;;;;;4364704;32;317525;-83
2023/12/13 12:15:50;;;;;;;42.00;20.70;;;;;;;;;;4372558;32;319193;-82
2023/12/13 12:18:17;;;;;;;39.63;19.97;;;;;;;;;;4380990;32;319277;-83
2023/12/13 12:20:47;;;;;;;38.60;22.77;;;;;;;;;;4366382;32;319950;-82
2023/12/13 12:23:14;;;;;;;45.43;26.40;;;;;;;;;;4384799;32;319302;-82
2023/12/13 12:25:42;;;;;;;49.57;26.70;;;;;;;;;;4371301;32;318906;-83
2023/12/13 12:28:10;;;;;;;49.20;29.13;;;;;;;;;;4383219;32;319228;-82
2023/12/13 12:30:39;;;;;;;62.00;30.63;;;;;;;;;;4369780;32;319499;-83
2023/12/13 12:33:07;;;;;;;65.83;34.93;;;;;;;;;;4360499;32;319782;-82
2023/12/13 12:35:34;;;;;;;56.80;28.90;;;;;;;;;;4366583;32;319221;-83
2023/12/13 12:38:07;;;;;;;50.70;25.90;;;;;;;;;;4357774;32;319383;-82
2023/12/13 12:40:34;;;;;;;55.10;30.63;;;;;;;;;;4367275;32;319402;-83
2023/12/13 12:43:01;;;;;;;43.67;27.50;;;;;;;;;;4351571;32;318889;-80
2023/12/13 12:45:28;;;;;;;47.13;29.20;;;;;;;;;;4366416;32;318644;-82
2023/12/13 12:47:55;;;;;;;61.37;36.10;;;;;;;;;;4356692;32;319161;-82
2023/12/13 12:50:22;;;;;;;69.13;36.50;;;;;;;;;;4366949;32;319255;-83
2023/12/13 12:52:49;;;;;;;57.43;32.43;;;;;;;;;;4358302;32;318841;-82
2023/12/13 12:55:20;;;;;;;55.87;31.23;;;;;;;;;;4359949;32;318589;-83
2023/12/13 12:57:47;;;;;;;49.70;27.90;;;;;;;;;;4355808;32;319215;-83
2023/12/13 13:00:17;;;;;;;58.37;30.40;;;;;;;;;;4365594;32;319721;-83
2023/12/13 13:02:44;;;;;;;74.00;40.60;;;;;;;;;;4356028;32;319440;-82
2023/12/13 13:05:11;;;;;;;55.07;37.63;;;;;;;;;;4358839;32;319490;-81
2023/12/13 13:07:38;;;;;;;62.23;37.93;;;;;;;;;;4355841;32;319420;-83
2023/12/13 13:10:10;;;;;;;64.53;39.40;;;;;;;;;;4365182;32;319121;-83
2023/12/13 13:12:39;;;;;;;58.80;38.83;;;;;;;;;;4357637;32;318589;-82
2023/12/13 13:15:07;;;;;;;65.53;40.70;;;;;;;;;;4365653;32;319484;-82
2023/12/13 13:17:34;;;;;;;73.87;44.37;;;;;;;;;;4368131;32;319543;-82
2023/12/13 13:20:12;;;;;;;72.37;43.53;;;;;;;;;;4357852;32;319328;-83
2023/12/13 13:22:39;;;;;;;91.83;50.13;;;;;;;;;;4354933;32;319386;-79
2023/12/13 13:25:07;;;;;;;88.03;50.10;;;;;;;;;;4357611;32;318681;-80
2023/12/13 13:27:34;;;;;;;79.70;46.73;;;;;;;;;;4360532;32;361201;-80
2023/12/13 13:30:03;;;;;;;91.73;53.47;;;;;;;;;;4352041;32;319324;-79
2023/12/13 13:32:31;;;;;;;89.07;49.57;;;;;;;;;;4363736;32;318819;-80
2023/12/13 13:34:59;;;;;;;73.43;41.87;;;;;;;;;;4352776;32;319219;-80
2023/12/13 13:37:26;;;;;;;72.03;45.40;;;;;;;;;;4353063;32;319229;-81
2023/12/13 13:39:53;;;;;;;88.60;51.57;;;;;;;;;;4354949;32;319638;-80
2023/12/13 13:42:20;;;;;;;97.47;58.03;;;;;;;;;;4369445;32;319480;-80
2023/12/13 13:44:47;;;;;;;99.07;56.10;;;;;;;;;;4351285;32;319558;-81
2023/12/13 13:47:16;;;;;;;96.17;49.27;;;;;;;;;;4357095;32;318563;-81
2023/12/13 13:49:43;;;;;;;105.07;60.20;;;;;;;;;;4355637;32;319293;-80
2023/12/13 13:52:10;;;;;;;134.90;72.10;;;;;;;;;;4365831;32;320616;-82
2023/12/13 13:54:37;;;;;;;112.03;59.30;;;;;;;;;;4369972;32;333673;-80
2023/12/13 13:57:04;;;;;;;95.23;53.83;;;;;;;;;;4361310;32;420332;-82
2023/12/13 13:59:31;;;;;;;94.43;50.53;;;;;;;;;;4379468;32;319621;-82